sensor_id;sensor_type;location;lat;lon;timestamp;P1;durP1;ratioP1;P2;durP2;ratioP2
26181;SDS011;13927;51.534;11.866;2022-12-31T00:01:21;2.70;;;0.30;;
26181;SDS011;13927;51.534;11.866;2022-12-31T00:03:48;0.28;;;0.22;;
26181;SDS011;13927;51.534;11.866;2022-12-31T00:06:21;0.30;;;0.30;;
26181;SDS011;13927;51.534;11.866;2022-12-31T00:08:49;0.30;;;0.30;;
26181;SDS011;13927;51.534;11.866;2022-12-31T00:11:17;0.65;;;0.30;;
26181;SDS011;13927;51.534;11.866;2022-12-31T00:13:44;1.33;;;0.38;;
26181;SDS011;13927;51.534;11.866;2022-12-31T00:16:18;0.38;;;0.30;;
26181;SDS011;13927;51.534;11.866;2022-12-31T00:18:51;0.50;;;0.30;;
26181;SDS011;13927;51.534;11.866;2022-12-31T00:21:20;0.50;;;0.30;;
26181;SDS011;13927;51.534;11.866;2022-12-31T00:23:46;2.15;;;0.30;;
26181;SDS011;13927;51.534;11.866;2022-12-31T00:26:20;0.55;;;0.30;;
26181;SDS011;13927;51.534;11.866;2022-12-31T00:28:49;0.93;;;0.30;;
26181;SDS011;13927;51.534;11.866;2022-12-31T00:31:17;0.22;;;0.22;;
26181;SDS011;13927;51.534;11.866;2022-12-31T00:33:55;0.88;;;0.38;;
26181;SDS011;13927;51.534;11.866;2022-12-31T00:36:24;0.30;;;0.30;;
26181;SDS011;13927;51.534;11.866;2022-12-31T00:38:50;0.30;;;0.20;;
26181;SDS011;13927;51.534;11.866;2022-12-31T00:41:17;0.30;;;0.30;;
26181;SDS011;13927;51.534;11.866;2022-12-31T00:43:45;1.42;;;0.60;;
26181;SDS011;13927;51.534;11.866;2022-12-31T00:46:12;0.52;;;0.30;;
26181;SDS011;13927;51.534;11.866;2022-12-31T00:48:38;0.55;;;0.40;;
26181;SDS011;13927;51.534;11.866;2022-12-31T00:51:05;1.85;;;0.60;;
26181;SDS011;13927;51.534;11.866;2022-12-31T00:53:33;0.38;;;0.30;;
26181;SDS011;13927;51.534;11.866;2022-12-31T00:56:01;0.50;;;0.50;;
26181;SDS011;13927;51.534;11.866;2022-12-31T00:58:30;0.60;;;0.40;;
26181;SDS011;13927;51.534;11.866;2022-12-31T01:00:55;0.50;;;0.50;;
26181;SDS011;13927;51.534;11.866;2022-12-31T01:03:21;0.75;;;0.40;;
26181;SDS011;13927;51.534;11.866;2022-12-31T01:05:48;0.40;;;0.40;;
26181;SDS011;13927;51.534;11.866;2022-12-31T01:08:14;0.55;;;0.40;;
26181;SDS011;13927;51.534;11.866;2022-12-31T01:10:41;0.35;;;0.35;;
26181;SDS011;13927;51.534;11.866;2022-12-31T01:13:31;0.47;;;0.40;;
26181;SDS011;13927;51.534;11.866;2022-12-31T01:15:56;0.65;;;0.40;;
26181;SDS011;13927;51.534;11.866;2022-12-31T01:18:22;0.55;;;0.38;;
26181;SDS011;13927;51.534;11.866;2022-12-31T01:20:48;0.28;;;0.28;;
26181;SDS011;13927;51.534;11.866;2022-12-31T01:23:13;0.80;;;0.57;;
26181;SDS011;13927;51.534;11.866;2022-12-31T01:25:39;2.33;;;1.60;;
26181;SDS011;13927;51.534;11.866;2022-12-31T01:28:06;1.80;;;1.30;;
26181;SDS011;13927;51.534;11.866;2022-12-31T01:30:36;2.00;;;1.60;;
26181;SDS011;13927;51.534;11.866;2022-12-31T01:33:03;1.73;;;0.70;;
26181;SDS011;13927;51.534;11.866;2022-12-31T01:35:29;0.30;;;0.30;;
26181;SDS011;13927;51.534;11.866;2022-12-31T01:37:58;0.43;;;0.20;;
26181;SDS011;13927;51.534;11.866;2022-12-31T01:40:24;0.55;;;0.30;;
26181;SDS011;13927;51.534;11.866;2022-12-31T01:42:53;0.65;;;0.30;;
26181;SDS011;13927;51.534;11.866;2022-12-31T01:45:20;1.83;;;0.35;;
26181;SDS011;13927;51.534;11.866;2022-12-31T01:47:48;0.45;;;0.40;;
26181;SDS011;13927;51.534;11.866;2022-12-31T01:50:26;0.70;;;0.60;;
26181;SDS011;13927;51.534;11.866;2022-12-31T01:52:57;0.73;;;0.40;;
26181;SDS011;13927;51.534;11.866;2022-12-31T01:57:54;0.30;;;0.30;;
26181;SDS011;13927;51.534;11.866;2022-12-31T02:00:38;0.45;;;0.30;;
26181;SDS011;13927;51.534;11.866;2022-12-31T02:03:04;0.70;;;0.40;;
26181;SDS011;13927;51.534;11.866;2022-12-31T02:05:34;1.30;;;0.50;;
26181;SDS011;13927;51.534;11.866;2022-12-31T02:08:20;0.35;;;0.30;;
26181;SDS011;13927;51.534;11.866;2022-12-31T02:10:46;1.08;;;0.30;;
26181;SDS011;13927;51.534;11.866;2022-12-31T02:13:12;0.20;;;0.20;;
26181;SDS011;13927;51.534;11.866;2022-12-31T02:16:02;0.43;;;0.35;;
26181;SDS011;13927;51.534;11.866;2022-12-31T02:18:52;0.30;;;0.30;;
26181;SDS011;13927;51.534;11.866;2022-12-31T02:24:25;0.25;;;0.25;;
26181;SDS011;13927;51.534;11.866;2022-12-31T02:30:05;0.80;;;0.40;;
26181;SDS011;13927;51.534;11.866;2022-12-31T02:32:50;0.47;;;0.40;;
26181;SDS011;13927;51.534;11.866;2022-12-31T02:35:40;0.40;;;0.40;;
26181;SDS011;13927;51.534;11.866;2022-12-31T02:38:18;0.47;;;0.38;;
26181;SDS011;13927;51.534;11.866;2022-12-31T02:40:49;0.32;;;0.32;;
26181;SDS011;13927;51.534;11.866;2022-12-31T02:43:18;1.02;;;0.40;;
26181;SDS011;13927;51.534;11.866;2022-12-31T02:45:44;0.50;;;0.40;;
26181;SDS011;13927;51.534;11.866;2022-12-31T02:48:22;0.70;;;0.40;;
26181;SDS011;13927;51.534;11.866;2022-12-31T02:51:32;0.32;;;0.32;;
26181;SDS011;13927;51.534;11.866;2022-12-31T02:59:33;0.30;;;0.30;;
26181;SDS011;13927;51.534;11.866;2022-12-31T03:02:39;0.85;;;0.47;;
26181;SDS011;13927;51.534;11.866;2022-12-31T03:05:08;1.40;;;0.25;;
26181;SDS011;13927;51.534;11.866;2022-12-31T03:07:35;0.60;;;0.30;;
26181;SDS011;13927;51.534;11.866;2022-12-31T03:10:03;0.70;;;0.20;;
26181;SDS011;13927;51.534;11.866;2022-12-31T03:12:30;0.28;;;0.25;;
26181;SDS011;13927;51.534;11.866;2022-12-31T03:15:11;1.30;;;0.35;;
26181;SDS011;13927;51.534;11.866;2022-12-31T03:18:10;0.35;;;0.30;;
26181;SDS011;13927;51.534;11.866;2022-12-31T03:21:10;0.30;;;0.30;;
26181;SDS011;13927;51.534;11.866;2022-12-31T03:23:56;0.30;;;0.30;;
26181;SDS011;13927;51.534;11.866;2022-12-31T03:26:40;0.40;;;0.40;;
26181;SDS011;13927;51.534;11.866;2022-12-31T03:29:06;0.30;;;0.30;;
26181;SDS011;13927;51.534;11.866;2022-12-31T03:31:31;2.15;;;0.30;;
26181;SDS011;13927;51.534;11.866;2022-12-31T03:33:57;0.22;;;0.22;;
26181;SDS011;13927;51.534;11.866;2022-12-31T03:36:23;0.35;;;0.35;;
26181;SDS011;13927;51.534;11.866;2022-12-31T03:38:48;0.90;;;0.35;;
26181;SDS011;13927;51.534;11.866;2022-12-31T03:41:14;0.35;;;0.30;;
26181;SDS011;13927;51.534;11.866;2022-12-31T03:43:40;0.63;;;0.40;;
26181;SDS011;13927;51.534;11.866;2022-12-31T03:46:05;0.35;;;0.30;;
26181;SDS011;13927;51.534;11.866;2022-12-31T03:48:31;0.52;;;0.30;;
26181;SDS011;13927;51.534;11.866;2022-12-31T03:50:57;0.40;;;0.40;;
26181;SDS011;13927;51.534;11.866;2022-12-31T03:53:22;0.60;;;0.45;;
26181;SDS011;13927;51.534;11.866;2022-12-31T03:55:51;0.30;;;0.30;;
26181;SDS011;13927;51.534;11.866;2022-12-31T03:58:18;0.70;;;0.40;;
26181;SDS011;13927;51.534;11.866;2022-12-31T04:00:45;0.40;;;0.40;;
26181;SDS011;13927;51.534;11.866;2022-12-31T04:03:10;0.60;;;0.40;;
26181;SDS011;13927;51.534;11.866;2022-12-31T04:05:36;0.32;;;0.32;;
26181;SDS011;13927;51.534;11.866;2022-12-31T04:08:02;0.30;;;0.30;;
26181;SDS011;13927;51.534;11.866;2022-12-31T04:10:27;0.30;;;0.30;;
26181;SDS011;13927;51.534;11.866;2022-12-31T04:12:53;1.35;;;0.35;;
26181;SDS011;13927;51.534;11.866;2022-12-31T04:15:19;0.30;;;0.30;;
26181;SDS011;13927;51.534;11.866;2022-12-31T04:17:46;0.55;;;0.40;;
26181;SDS011;13927;51.534;11.866;2022-12-31T04:20:12;0.30;;;0.30;;
26181;SDS011;13927;51.534;11.866;2022-12-31T04:22:38;0.50;;;0.30;;
26181;SDS011;13927;51.534;11.866;2022-12-31T04:25:05;0.45;;;0.40;;
26181;SDS011;13927;51.534;11.866;2022-12-31T04:27:36;1.23;;;0.47;;
26181;SDS011;13927;51.534;11.866;2022-12-31T04:30:07;0.40;;;0.40;;
26181;SDS011;13927;51.534;11.866;2022-12-31T04:32:34;0.20;;;0.20;;
26181;SDS011;13927;51.534;11.866;2022-12-31T04:35:00;1.30;;;0.50;;
26181;SDS011;13927;51.534;11.866;2022-12-31T04:37:26;0.52;;;0.40;;
26181;SDS011;13927;51.534;11.866;2022-12-31T04:39:52;1.25;;;0.50;;
26181;SDS011;13927;51.534;11.866;2022-12-31T04:42:17;0.32;;;0.30;;
26181;SDS011;13927;51.534;11.866;2022-12-31T04:44:43;0.45;;;0.45;;
26181;SDS011;13927;51.534;11.866;2022-12-31T04:47:09;1.00;;;0.30;;
26181;SDS011;13927;51.534;11.866;2022-12-31T04:49:34;2.00;;;0.43;;
26181;SDS011;13927;51.534;11.866;2022-12-31T04:52:00;0.45;;;0.38;;
26181;SDS011;13927;51.534;11.866;2022-12-31T04:54:26;0.40;;;0.35;;
26181;SDS011;13927;51.534;11.866;2022-12-31T04:56:51;0.30;;;0.30;;
26181;SDS011;13927;51.534;11.866;2022-12-31T04:59:17;0.40;;;0.40;;
26181;SDS011;13927;51.534;11.866;2022-12-31T05:01:43;0.30;;;0.30;;
26181;SDS011;13927;51.534;11.866;2022-12-31T05:04:08;0.30;;;0.30;;
26181;SDS011;13927;51.534;11.866;2022-12-31T05:06:34;1.45;;;0.40;;
26181;SDS011;13927;51.534;11.866;2022-12-31T05:09:00;0.43;;;0.38;;
26181;SDS011;13927;51.534;11.866;2022-12-31T05:11:25;0.20;;;0.20;;
26181;SDS011;13927;51.534;11.866;2022-12-31T05:13:51;0.57;;;0.40;;
26181;SDS011;13927;51.534;11.866;2022-12-31T05:16:17;1.00;;;0.40;;
26181;SDS011;13927;51.534;11.866;2022-12-31T05:18:42;0.30;;;0.30;;
26181;SDS011;13927;51.534;11.866;2022-12-31T05:21:08;0.50;;;0.30;;
26181;SDS011;13927;51.534;11.866;2022-12-31T05:23:35;0.65;;;0.40;;
26181;SDS011;13927;51.534;11.866;2022-12-31T05:26:01;0.35;;;0.30;;
26181;SDS011;13927;51.534;11.866;2022-12-31T05:28:27;1.88;;;0.30;;
26181;SDS011;13927;51.534;11.866;2022-12-31T05:30:52;0.52;;;0.30;;
26181;SDS011;13927;51.534;11.866;2022-12-31T05:33:18;1.38;;;0.30;;
26181;SDS011;13927;51.534;11.866;2022-12-31T05:35:44;0.40;;;0.40;;
26181;SDS011;13927;51.534;11.866;2022-12-31T05:38:10;0.20;;;0.20;;
26181;SDS011;13927;51.534;11.866;2022-12-31T05:40:36;3.08;;;0.55;;
26181;SDS011;13927;51.534;11.866;2022-12-31T05:43:02;1.10;;;0.40;;
26181;SDS011;13927;51.534;11.866;2022-12-31T05:45:27;0.40;;;0.38;;
26181;SDS011;13927;51.534;11.866;2022-12-31T05:47:53;0.30;;;0.30;;
26181;SDS011;13927;51.534;11.866;2022-12-31T05:50:19;0.40;;;0.30;;
26181;SDS011;13927;51.534;11.866;2022-12-31T05:52:45;0.57;;;0.25;;
26181;SDS011;13927;51.534;11.866;2022-12-31T05:55:11;0.30;;;0.30;;
26181;SDS011;13927;51.534;11.866;2022-12-31T05:57:37;0.75;;;0.30;;
26181;SDS011;13927;51.534;11.866;2022-12-31T06:00:04;0.30;;;0.30;;
26181;SDS011;13927;51.534;11.866;2022-12-31T06:02:32;0.30;;;0.30;;
26181;SDS011;13927;51.534;11.866;2022-12-31T06:04:57;0.95;;;0.40;;
26181;SDS011;13927;51.534;11.866;2022-12-31T06:07:24;0.60;;;0.40;;
26181;SDS011;13927;51.534;11.866;2022-12-31T06:09:49;0.52;;;0.38;;
26181;SDS011;13927;51.534;11.866;2022-12-31T06:12:15;0.30;;;0.30;;
26181;SDS011;13927;51.534;11.866;2022-12-31T06:14:41;1.55;;;0.40;;
26181;SDS011;13927;51.534;11.866;2022-12-31T06:17:07;0.40;;;0.30;;
26181;SDS011;13927;51.534;11.866;2022-12-31T06:19:33;0.50;;;0.30;;
26181;SDS011;13927;51.534;11.866;2022-12-31T06:21:59;0.60;;;0.40;;
26181;SDS011;13927;51.534;11.866;2022-12-31T06:24:24;0.30;;;0.30;;
26181;SDS011;13927;51.534;11.866;2022-12-31T06:26:51;0.30;;;0.30;;
26181;SDS011;13927;51.534;11.866;2022-12-31T06:29:17;0.25;;;0.25;;
26181;SDS011;13927;51.534;11.866;2022-12-31T06:31:42;0.95;;;0.45;;
26181;SDS011;13927;51.534;11.866;2022-12-31T06:34:08;0.30;;;0.28;;
26181;SDS011;13927;51.534;11.866;2022-12-31T06:36:34;0.50;;;0.40;;
26181;SDS011;13927;51.534;11.866;2022-12-31T06:39:00;0.90;;;0.32;;
26181;SDS011;13927;51.534;11.866;2022-12-31T06:41:26;0.55;;;0.43;;
26181;SDS011;13927;51.534;11.866;2022-12-31T06:43:51;1.40;;;0.40;;
26181;SDS011;13927;51.534;11.866;2022-12-31T06:46:17;0.68;;;0.40;;
26181;SDS011;13927;51.534;11.866;2022-12-31T06:48:43;4.63;;;0.52;;
26181;SDS011;13927;51.534;11.866;2022-12-31T06:51:19;0.57;;;0.45;;
26181;SDS011;13927;51.534;11.866;2022-12-31T06:53:46;1.15;;;0.50;;
26181;SDS011;13927;51.534;11.866;2022-12-31T06:56:15;0.93;;;0.40;;
26181;SDS011;13927;51.534;11.866;2022-12-31T06:58:45;0.63;;;0.40;;
26181;SDS011;13927;51.534;11.866;2022-12-31T07:01:28;0.45;;;0.43;;
26181;SDS011;13927;51.534;11.866;2022-12-31T07:09:54;1.13;;;0.47;;
26181;SDS011;13927;51.534;11.866;2022-12-31T07:15:56;3.30;;;0.52;;
26181;SDS011;13927;51.534;11.866;2022-12-31T07:18:47;3.05;;;0.65;;
26181;SDS011;13927;51.534;11.866;2022-12-31T07:21:32;1.55;;;0.50;;
26181;SDS011;13927;51.534;11.866;2022-12-31T07:24:02;0.70;;;0.60;;
26181;SDS011;13927;51.534;11.866;2022-12-31T07:34:51;1.38;;;0.52;;
26181;SDS011;13927;51.534;11.866;2022-12-31T07:40:36;1.40;;;0.50;;
26181;SDS011;13927;51.534;11.866;2022-12-31T07:43:41;1.52;;;0.52;;
26181;SDS011;13927;51.534;11.866;2022-12-31T07:49:19;0.63;;;0.45;;
26181;SDS011;13927;51.534;11.866;2022-12-31T07:51:45;0.80;;;0.70;;
26181;SDS011;13927;51.534;11.866;2022-12-31T07:54:11;0.95;;;0.50;;
26181;SDS011;13927;51.534;11.866;2022-12-31T07:56:37;1.95;;;0.55;;
26181;SDS011;13927;51.534;11.866;2022-12-31T07:59:11;0.90;;;0.60;;
26181;SDS011;13927;51.534;11.866;2022-12-31T08:04:47;2.75;;;0.45;;
26181;SDS011;13927;51.534;11.866;2022-12-31T08:10:46;3.13;;;0.70;;
26181;SDS011;13927;51.534;11.866;2022-12-31T08:13:39;0.68;;;0.60;;
26181;SDS011;13927;51.534;11.866;2022-12-31T08:16:10;2.33;;;0.65;;
26181;SDS011;13927;51.534;11.866;2022-12-31T08:18:37;0.88;;;0.55;;
26181;SDS011;13927;51.534;11.866;2022-12-31T08:23:54;0.73;;;0.57;;
26181;SDS011;13927;51.534;11.866;2022-12-31T08:26:54;1.42;;;0.68;;
26181;SDS011;13927;51.534;11.866;2022-12-31T08:29:53;1.80;;;0.63;;
26181;SDS011;13927;51.534;11.866;2022-12-31T08:32:58;1.27;;;0.90;;
26181;SDS011;13927;51.534;11.866;2022-12-31T08:38:35;1.63;;;0.90;;
26181;SDS011;13927;51.534;11.866;2022-12-31T08:46:49;1.33;;;0.60;;
26181;SDS011;13927;51.534;11.866;2022-12-31T08:49:37;1.17;;;0.55;;
26181;SDS011;13927;51.534;11.866;2022-12-31T08:52:05;0.80;;;0.50;;
26181;SDS011;13927;51.534;11.866;2022-12-31T08:54:42;1.15;;;0.60;;
26181;SDS011;13927;51.534;11.866;2022-12-31T08:59:56;2.72;;;0.88;;
26181;SDS011;13927;51.534;11.866;2022-12-31T09:02:38;0.93;;;0.50;;
26181;SDS011;13927;51.534;11.866;2022-12-31T09:08:51;1.70;;;0.80;;
26181;SDS011;13927;51.534;11.866;2022-12-31T09:14:14;2.88;;;0.85;;
26181;SDS011;13927;51.534;11.866;2022-12-31T09:17:10;1.02;;;0.70;;
26181;SDS011;13927;51.534;11.866;2022-12-31T09:19:52;1.25;;;0.77;;
26181;SDS011;13927;51.534;11.866;2022-12-31T09:22:19;2.47;;;0.70;;
26181;SDS011;13927;51.534;11.866;2022-12-31T09:24:45;2.08;;;0.68;;
26181;SDS011;13927;51.534;11.866;2022-12-31T09:27:20;2.47;;;0.63;;
26181;SDS011;13927;51.534;11.866;2022-12-31T09:30:01;2.10;;;1.02;;
26181;SDS011;13927;51.534;11.866;2022-12-31T09:37:50;1.35;;;0.70;;
26181;SDS011;13927;51.534;11.866;2022-12-31T09:41:06;1.85;;;0.88;;
26181;SDS011;13927;51.534;11.866;2022-12-31T09:46:54;2.50;;;0.75;;
26181;SDS011;13927;51.534;11.866;2022-12-31T09:58:17;2.03;;;0.80;;
26181;SDS011;13927;51.534;11.866;2022-12-31T10:01:06;1.15;;;0.70;;
26181;SDS011;13927;51.534;11.866;2022-12-31T10:04:01;1.67;;;0.88;;
26181;SDS011;13927;51.534;11.866;2022-12-31T10:09:41;4.47;;;0.90;;
26181;SDS011;13927;51.534;11.866;2022-12-31T10:27:23;1.27;;;0.70;;
26181;SDS011;13927;51.534;11.866;2022-12-31T10:30:02;1.63;;;0.60;;
26181;SDS011;13927;51.534;11.866;2022-12-31T10:32:42;3.85;;;1.02;;
26181;SDS011;13927;51.534;11.866;2022-12-31T10:35:35;1.88;;;0.73;;
26181;SDS011;13927;51.534;11.866;2022-12-31T10:53:26;1.77;;;0.75;;
26181;SDS011;13927;51.534;11.866;2022-12-31T11:31:27;1.80;;;0.80;;
26181;SDS011;13927;51.534;11.866;2022-12-31T11:34:24;1.77;;;0.60;;
26181;SDS011;13927;51.534;11.866;2022-12-31T11:59:56;1.38;;;0.80;;
26181;SDS011;13927;51.534;11.866;2022-12-31T12:04:59;0.98;;;0.60;;
26181;SDS011;13927;51.534;11.866;2022-12-31T12:07:30;1.40;;;0.50;;
26181;SDS011;13927;51.534;11.866;2022-12-31T12:09:57;2.33;;;0.90;;
26181;SDS011;13927;51.534;11.866;2022-12-31T12:12:37;1.20;;;0.82;;
26181;SDS011;13927;51.534;11.866;2022-12-31T12:15:09;1.85;;;0.63;;
26181;SDS011;13927;51.534;11.866;2022-12-31T12:17:47;2.53;;;0.63;;
26181;SDS011;13927;51.534;11.866;2022-12-31T12:20:18;2.45;;;0.73;;
26181;SDS011;13927;51.534;11.866;2022-12-31T12:22:57;1.25;;;0.60;;
26181;SDS011;13927;51.534;11.866;2022-12-31T12:25:34;1.58;;;0.73;;
26181;SDS011;13927;51.534;11.866;2022-12-31T12:28:23;1.10;;;0.70;;
26181;SDS011;13927;51.534;11.866;2022-12-31T12:31:00;2.45;;;0.90;;
26181;SDS011;13927;51.534;11.866;2022-12-31T12:33:30;4.30;;;1.25;;
26181;SDS011;13927;51.534;11.866;2022-12-31T12:36:14;1.75;;;0.90;;
26181;SDS011;13927;51.534;11.866;2022-12-31T12:38:42;2.40;;;0.90;;
26181;SDS011;13927;51.534;11.866;2022-12-31T12:41:21;1.98;;;0.98;;
26181;SDS011;13927;51.534;11.866;2022-12-31T12:44:00;3.42;;;0.88;;
26181;SDS011;13927;51.534;11.866;2022-12-31T12:46:33;1.92;;;0.75;;
26181;SDS011;13927;51.534;11.866;2022-12-31T12:49:03;3.10;;;1.00;;
26181;SDS011;13927;51.534;11.866;2022-12-31T12:51:45;3.05;;;0.70;;
26181;SDS011;13927;51.534;11.866;2022-12-31T12:55:09;2.17;;;1.08;;
26181;SDS011;13927;51.534;11.866;2022-12-31T13:12:11;2.40;;;0.75;;
26181;SDS011;13927;51.534;11.866;2022-12-31T13:15:09;2.58;;;1.00;;
26181;SDS011;13927;51.534;11.866;2022-12-31T13:23:24;2.22;;;0.88;;
26181;SDS011;13927;51.534;11.866;2022-12-31T13:26:07;1.13;;;0.70;;
26181;SDS011;13927;51.534;11.866;2022-12-31T13:28:49;3.65;;;0.80;;
26181;SDS011;13927;51.534;11.866;2022-12-31T13:31:18;1.55;;;0.90;;
26181;SDS011;13927;51.534;11.866;2022-12-31T13:34:00;1.90;;;0.88;;
26181;SDS011;13927;51.534;11.866;2022-12-31T13:36:36;1.65;;;1.02;;
26181;SDS011;13927;51.534;11.866;2022-12-31T13:39:16;1.75;;;0.93;;
26181;SDS011;13927;51.534;11.866;2022-12-31T13:44:51;2.00;;;1.00;;
26181;SDS011;13927;51.534;11.866;2022-12-31T13:47:31;1.17;;;0.85;;
26181;SDS011;13927;51.534;11.866;2022-12-31T13:52:56;1.13;;;0.80;;
26181;SDS011;13927;51.534;11.866;2022-12-31T13:55:43;3.42;;;1.33;;
26181;SDS011;13927;51.534;11.866;2022-12-31T13:58:22;4.20;;;1.08;;
26181;SDS011;13927;51.534;11.866;2022-12-31T14:04:15;3.00;;;1.25;;
26181;SDS011;13927;51.534;11.866;2022-12-31T14:09:41;2.72;;;0.90;;
26181;SDS011;13927;51.534;11.866;2022-12-31T14:12:20;2.63;;;1.02;;
26181;SDS011;13927;51.534;11.866;2022-12-31T14:15:06;2.10;;;1.25;;
26181;SDS011;13927;51.534;11.866;2022-12-31T14:17:54;1.88;;;1.20;;
26181;SDS011;13927;51.534;11.866;2022-12-31T14:23:26;4.72;;;1.30;;
26181;SDS011;13927;51.534;11.866;2022-12-31T14:26:23;3.05;;;0.98;;
26181;SDS011;13927;51.534;11.866;2022-12-31T14:48:40;1.67;;;0.90;;
26181;SDS011;13927;51.534;11.866;2022-12-31T14:51:27;1.85;;;1.02;;
26181;SDS011;13927;51.534;11.866;2022-12-31T14:53:54;5.78;;;2.67;;
26181;SDS011;13927;51.534;11.866;2022-12-31T14:56:41;3.72;;;2.30;;
26181;SDS011;13927;51.534;11.866;2022-12-31T14:59:23;4.15;;;1.05;;
26181;SDS011;13927;51.534;11.866;2022-12-31T15:01:53;2.63;;;1.40;;
26181;SDS011;13927;51.534;11.866;2022-12-31T15:04:31;2.58;;;1.17;;
26181;SDS011;13927;51.534;11.866;2022-12-31T15:07:29;2.90;;;1.20;;
26181;SDS011;13927;51.534;11.866;2022-12-31T15:13:06;1.60;;;1.30;;
26181;SDS011;13927;51.534;11.866;2022-12-31T15:24:44;2.15;;;1.05;;
26181;SDS011;13927;51.534;11.866;2022-12-31T15:30:01;2.65;;;1.27;;
26181;SDS011;13927;51.534;11.866;2022-12-31T15:32:50;3.92;;;1.55;;
26181;SDS011;13927;51.534;11.866;2022-12-31T15:38:00;2.80;;;1.30;;
26181;SDS011;13927;51.534;11.866;2022-12-31T15:40:41;1.98;;;1.17;;
26181;SDS011;13927;51.534;11.866;2022-12-31T15:43:19;2.33;;;1.27;;
26181;SDS011;13927;51.534;11.866;2022-12-31T15:45:59;1.75;;;1.13;;
26181;SDS011;13927;51.534;11.866;2022-12-31T15:48:36;2.97;;;1.08;;
26181;SDS011;13927;51.534;11.866;2022-12-31T15:51:28;1.83;;;1.20;;
26181;SDS011;13927;51.534;11.866;2022-12-31T15:54:05;5.00;;;1.48;;
26181;SDS011;13927;51.534;11.866;2022-12-31T15:56:57;3.33;;;1.20;;
26181;SDS011;13927;51.534;11.866;2022-12-31T15:59:23;1.88;;;1.27;;
26181;SDS011;13927;51.534;11.866;2022-12-31T16:01:52;1.63;;;1.00;;
26181;SDS011;13927;51.534;11.866;2022-12-31T16:04:20;2.08;;;1.10;;
26181;SDS011;13927;51.534;11.866;2022-12-31T16:06:49;1.80;;;0.90;;
26181;SDS011;13927;51.534;11.866;2022-12-31T16:09:26;1.80;;;1.27;;
26181;SDS011;13927;51.534;11.866;2022-12-31T16:11:58;4.95;;;1.73;;
26181;SDS011;13927;51.534;11.866;2022-12-31T16:14:28;3.47;;;1.45;;
26181;SDS011;13927;51.534;11.866;2022-12-31T16:17:05;3.15;;;1.52;;
26181;SDS011;13927;51.534;11.866;2022-12-31T16:22:16;1.65;;;1.17;;
26181;SDS011;13927;51.534;11.866;2022-12-31T16:24:52;2.47;;;1.38;;
26181;SDS011;13927;51.534;11.866;2022-12-31T16:27:23;3.15;;;1.45;;
26181;SDS011;13927;51.534;11.866;2022-12-31T16:29:58;2.60;;;1.10;;
26181;SDS011;13927;51.534;11.866;2022-12-31T16:32:48;2.75;;;1.52;;
26181;SDS011;13927;51.534;11.866;2022-12-31T16:35:21;2.00;;;0.95;;
26181;SDS011;13927;51.534;11.866;2022-12-31T16:38:07;2.45;;;1.30;;
26181;SDS011;13927;51.534;11.866;2022-12-31T16:40:38;2.63;;;1.63;;
26181;SDS011;13927;51.534;11.866;2022-12-31T16:43:20;5.18;;;1.67;;
26181;SDS011;13927;51.534;11.866;2022-12-31T16:46:23;3.45;;;1.60;;
26181;SDS011;13927;51.534;11.866;2022-12-31T16:48:54;1.85;;;1.10;;
26181;SDS011;13927;51.534;11.866;2022-12-31T16:51:28;3.45;;;1.10;;
26181;SDS011;13927;51.534;11.866;2022-12-31T16:53:56;3.78;;;1.45;;
26181;SDS011;13927;51.534;11.866;2022-12-31T16:56:25;1.90;;;1.15;;
26181;SDS011;13927;51.534;11.866;2022-12-31T16:58:58;3.50;;;1.45;;
26181;SDS011;13927;51.534;11.866;2022-12-31T17:01:31;1.85;;;1.15;;
26181;SDS011;13927;51.534;11.866;2022-12-31T17:04:01;2.05;;;1.40;;
26181;SDS011;13927;51.534;11.866;2022-12-31T17:06:33;2.08;;;1.27;;
26181;SDS011;13927;51.534;11.866;2022-12-31T17:11:35;4.13;;;1.20;;
26181;SDS011;13927;51.534;11.866;2022-12-31T17:14:23;1.40;;;1.00;;
26181;SDS011;13927;51.534;11.866;2022-12-31T17:16:55;2.10;;;1.30;;
26181;SDS011;13927;51.534;11.866;2022-12-31T17:19:39;3.05;;;1.40;;
26181;SDS011;13927;51.534;11.866;2022-12-31T17:22:54;1.30;;;1.10;;
26181;SDS011;13927;51.534;11.866;2022-12-31T17:27:53;2.95;;;1.10;;
26181;SDS011;13927;51.534;11.866;2022-12-31T17:32:57;3.00;;;1.50;;
26181;SDS011;13927;51.534;11.866;2022-12-31T17:35:30;3.63;;;1.65;;
26181;SDS011;13927;51.534;11.866;2022-12-31T17:43:31;2.47;;;1.65;;
26181;SDS011;13927;51.534;11.866;2022-12-31T17:45:59;3.25;;;1.90;;
26181;SDS011;13927;51.534;11.866;2022-12-31T17:48:25;2.88;;;1.67;;
26181;SDS011;13927;51.534;11.866;2022-12-31T17:53:23;5.35;;;1.55;;
26181;SDS011;13927;51.534;11.866;2022-12-31T17:55:50;2.58;;;1.60;;
26181;SDS011;13927;51.534;11.866;2022-12-31T18:00:51;4.07;;;1.80;;
26181;SDS011;13927;51.534;11.866;2022-12-31T18:03:18;2.08;;;1.35;;
26181;SDS011;13927;51.534;11.866;2022-12-31T18:05:44;2.60;;;1.83;;
26181;SDS011;13927;51.534;11.866;2022-12-31T18:08:09;2.83;;;2.20;;
26181;SDS011;13927;51.534;11.866;2022-12-31T18:10:37;4.05;;;2.40;;
26181;SDS011;13927;51.534;11.866;2022-12-31T18:13:05;5.10;;;3.17;;
26181;SDS011;13927;51.534;11.866;2022-12-31T18:15:38;3.95;;;2.10;;
26181;SDS011;13927;51.534;11.866;2022-12-31T18:18:37;3.47;;;2.55;;
26181;SDS011;13927;51.534;11.866;2022-12-31T18:21:00;4.00;;;2.08;;
26181;SDS011;13927;51.534;11.866;2022-12-31T18:23:37;4.45;;;2.20;;
26181;SDS011;13927;51.534;11.866;2022-12-31T18:26:11;4.75;;;2.25;;
26181;SDS011;13927;51.534;11.866;2022-12-31T18:28:41;2.25;;;1.85;;
26181;SDS011;13927;51.534;11.866;2022-12-31T18:31:20;3.78;;;1.65;;
26181;SDS011;13927;51.534;11.866;2022-12-31T18:33:48;4.03;;;1.75;;
26181;SDS011;13927;51.534;11.866;2022-12-31T18:36:17;3.10;;;1.70;;
26181;SDS011;13927;51.534;11.866;2022-12-31T18:38:44;3.50;;;1.70;;
26181;SDS011;13927;51.534;11.866;2022-12-31T18:41:14;3.15;;;2.15;;
26181;SDS011;13927;51.534;11.866;2022-12-31T18:43:45;2.28;;;1.40;;
26181;SDS011;13927;51.534;11.866;2022-12-31T18:46:13;3.60;;;1.85;;
26181;SDS011;13927;51.534;11.866;2022-12-31T18:48:41;3.70;;;2.35;;
26181;SDS011;13927;51.534;11.866;2022-12-31T18:51:18;3.90;;;1.40;;
26181;SDS011;13927;51.534;11.866;2022-12-31T18:53:46;2.67;;;1.60;;
26181;SDS011;13927;51.534;11.866;2022-12-31T18:56:13;3.10;;;1.83;;
26181;SDS011;13927;51.534;11.866;2022-12-31T18:58:42;2.72;;;1.63;;
26181;SDS011;13927;51.534;11.866;2022-12-31T19:01:51;3.08;;;2.30;;
26181;SDS011;13927;51.534;11.866;2022-12-31T19:04:01;3.75;;;2.00;;
26181;SDS011;13927;51.534;11.866;2022-12-31T19:06:40;3.92;;;2.47;;
26181;SDS011;13927;51.534;11.866;2022-12-31T19:09:06;4.07;;;2.50;;
26181;SDS011;13927;51.534;11.866;2022-12-31T19:11:33;3.90;;;2.20;;
26181;SDS011;13927;51.534;11.866;2022-12-31T19:14:00;4.95;;;2.58;;
26181;SDS011;13927;51.534;11.866;2022-12-31T19:16:26;4.65;;;2.70;;
26181;SDS011;13927;51.534;11.866;2022-12-31T19:18:52;4.07;;;2.17;;
26181;SDS011;13927;51.534;11.866;2022-12-31T19:21:19;3.80;;;1.88;;
26181;SDS011;13927;51.534;11.866;2022-12-31T19:23:46;3.85;;;2.05;;
26181;SDS011;13927;51.534;11.866;2022-12-31T19:26:18;3.58;;;2.78;;
26181;SDS011;13927;51.534;11.866;2022-12-31T19:28:45;4.45;;;2.10;;
26181;SDS011;13927;51.534;11.866;2022-12-31T19:31:13;3.65;;;2.45;;
26181;SDS011;13927;51.534;11.866;2022-12-31T19:33:39;5.28;;;2.10;;
26181;SDS011;13927;51.534;11.866;2022-12-31T19:36:05;4.03;;;2.30;;
26181;SDS011;13927;51.534;11.866;2022-12-31T19:38:34;3.28;;;1.80;;